createdAt,value
2022-10-28T00:01:12.909Z,17.30
2022-10-28T00:03:43.620Z,17.30
2022-10-28T00:06:13.332Z,17.30
2022-10-28T00:08:41.241Z,17.30
2022-10-28T00:11:12.605Z,17.20
2022-10-28T00:13:41.549Z,17.20
2022-10-28T00:16:11.675Z,17.20
2022-10-28T00:18:39.986Z,17.10
2022-10-28T00:21:09.920Z,17.10
2022-10-28T00:23:38.273Z,17.00
2022-10-28T00:26:08.406Z,17.00
2022-10-28T00:28:41.731Z,17.00
2022-10-28T00:31:11.198Z,17.00
2022-10-28T00:33:39.437Z,17.00
2022-10-28T00:36:15.570Z,17.00
2022-10-28T00:38:45.006Z,17.00
2022-10-28T00:41:17.738Z,17.00
2022-10-28T00:43:48.940Z,17.00
2022-10-28T00:46:21.046Z,17.10
2022-10-28T00:48:53.007Z,17.10
2022-10-28T00:51:23.807Z,17.10
2022-10-28T00:53:53.844Z,17.10
2022-10-28T00:56:23.144Z,17.10
2022-10-28T00:58:54.645Z,17.10
2022-10-28T01:01:22.829Z,17.10
2022-10-28T01:03:50.740Z,17.10
2022-10-28T01:06:18.629Z,17.10
2022-10-28T01:08:46.438Z,17.10
2022-10-28T01:11:37.726Z,17.10
2022-10-28T01:14:24.414Z,17.10
2022-10-28T01:17:08.853Z,17.10
2022-10-28T01:20:11.834Z,17.10
2022-10-28T01:22:46.541Z,17.10
2022-10-28T01:25:37.040Z,17.10
2022-10-28T01:28:42.060Z,17.10
2022-10-28T01:31:23.671Z,17.10
2022-10-28T01:33:55.398Z,17.00
2022-10-28T01:36:34.951Z,17.00
2022-10-28T01:39:12.708Z,17.00
2022-10-28T01:41:49.328Z,17.00
2022-10-28T01:44:25.310Z,17.00
2022-10-28T01:47:01.837Z,16.90
2022-10-28T01:49:34.782Z,16.90
2022-10-28T01:52:06.034Z,17.00
2022-10-28T01:54:36.707Z,16.90
2022-10-28T01:57:06.425Z,16.90
2022-10-28T01:59:36.386Z,16.90
2022-10-28T02:02:05.595Z,16.90
2022-10-28T02:04:33.418Z,16.90
2022-10-28T02:07:02.093Z,16.90
2022-10-28T02:09:40.081Z,16.80
2022-10-28T02:12:27.530Z,16.90
2022-10-28T02:15:26.993Z,16.80
2022-10-28T02:18:11.809Z,16.80
2022-10-28T02:20:48.788Z,16.80
2022-10-28T02:23:25.555Z,16.70
2022-10-28T02:25:59.078Z,16.70
2022-10-28T02:28:37.831Z,16.70
2022-10-28T02:31:11.068Z,16.70
2022-10-28T02:33:42.997Z,16.60
2022-10-28T02:36:14.894Z,16.60
2022-10-28T02:38:47.784Z,16.60
2022-10-28T02:41:19.993Z,16.50
2022-10-28T02:43:51.409Z,16.50
2022-10-28T02:46:20.657Z,16.50
2022-10-28T02:48:54.087Z,16.50
2022-10-28T02:51:25.906Z,16.50
2022-10-28T02:54:00.512Z,16.50
2022-10-28T02:56:30.813Z,16.40
2022-10-28T02:58:58.725Z,16.30
2022-10-28T03:01:26.680Z,16.30
2022-10-28T03:03:55.996Z,16.20
2022-10-28T03:06:26.839Z,16.20
2022-10-28T03:08:54.727Z,16.20
2022-10-28T03:11:22.529Z,16.10
2022-10-28T03:13:50.341Z,16.10
2022-10-28T03:16:18.165Z,16.10
2022-10-28T03:18:45.980Z,16.10
2022-10-28T03:21:15.198Z,16.10
2022-10-28T03:23:43.021Z,16.10
2022-10-28T03:26:10.909Z,16.10
2022-10-28T03:28:38.766Z,16.10
2022-10-28T03:31:06.801Z,16.10
2022-10-28T03:33:34.777Z,16.10
2022-10-28T03:36:02.611Z,16.10
2022-10-28T03:38:31.845Z,16.10
2022-10-28T03:40:59.689Z,16.10
2022-10-28T03:43:27.531Z,16.10
2022-10-28T03:45:55.376Z,16.10
2022-10-28T03:48:23.183Z,16.10
2022-10-28T03:50:53.953Z,16.10
2022-10-28T03:53:23.553Z,16.10
2022-10-28T03:55:55.325Z,16.10
2022-10-28T03:58:23.425Z,16.10
2022-10-28T04:00:52.181Z,16.20
2022-10-28T04:03:21.201Z,16.20
2022-10-28T04:05:49.292Z,16.20
2022-10-28T04:08:17.841Z,16.20
2022-10-28T04:10:47.516Z,16.20
2022-10-28T04:13:18.025Z,16.20
2022-10-28T04:15:45.930Z,16.20
2022-10-28T04:18:13.835Z,16.20
2022-10-28T04:20:41.686Z,16.20
2022-10-28T04:23:10.663Z,16.20
2022-10-28T04:25:38.541Z,16.20
2022-10-28T04:28:06.329Z,16.20
2022-10-28T04:30:35.505Z,16.10
2022-10-28T04:33:03.522Z,16.10
2022-10-28T04:35:31.325Z,16.10
2022-10-28T04:37:59.117Z,16.10
2022-10-28T04:40:26.928Z,16.00
2022-10-28T04:42:55.076Z,16.00
2022-10-28T04:45:23.199Z,16.00
2022-10-28T04:47:58.010Z,16.00
2022-10-28T04:50:26.096Z,15.90
2022-10-28T04:52:54.284Z,15.90
2022-10-28T04:55:22.285Z,15.80
2022-10-28T04:57:56.578Z,15.70
2022-10-28T05:00:24.963Z,15.70
2022-10-28T05:02:54.521Z,15.60
2022-10-28T05:05:23.359Z,15.60
2022-10-28T05:07:51.265Z,15.60
2022-10-28T05:10:19.275Z,15.50
2022-10-28T05:12:47.661Z,15.50
2022-10-28T05:15:17.767Z,15.50
2022-10-28T05:17:47.352Z,15.60
2022-10-28T05:20:18.317Z,15.60
2022-10-28T05:22:47.441Z,15.60
2022-10-28T05:25:15.548Z,15.60
2022-10-28T05:27:43.419Z,15.60
2022-10-28T05:30:12.295Z,15.50
2022-10-28T05:32:40.279Z,15.60
2022-10-28T05:35:09.265Z,15.60
2022-10-28T05:37:38.662Z,15.60
2022-10-28T05:40:07.345Z,15.70
2022-10-28T05:42:35.177Z,15.70
2022-10-28T05:45:02.969Z,15.60
2022-10-28T05:47:30.784Z,15.70
2022-10-28T05:49:58.577Z,15.60
2022-10-28T05:52:26.849Z,15.60
2022-10-28T05:54:56.029Z,15.60
2022-10-28T05:57:23.912Z,15.70
2022-10-28T05:59:51.795Z,15.60
2022-10-28T06:02:19.603Z,15.60
2022-10-28T06:04:47.453Z,15.60
2022-10-28T06:07:15.269Z,15.60
2022-10-28T06:09:43.116Z,15.50
2022-10-28T06:12:10.750Z,15.50
2022-10-28T06:14:38.552Z,15.50
2022-10-28T06:17:06.767Z,15.50
2022-10-28T06:19:34.590Z,15.50
2022-10-28T06:22:02.413Z,15.60
2022-10-28T06:24:30.245Z,15.60
2022-10-28T06:26:58.043Z,15.60
2022-10-28T06:29:27.198Z,15.60
2022-10-28T06:31:55.042Z,15.70
2022-10-28T06:34:22.913Z,15.80
2022-10-28T06:36:50.790Z,15.80
2022-10-28T06:39:18.711Z,15.90
2022-10-28T06:41:46.701Z,16.00
2022-10-28T06:44:14.529Z,16.00
2022-10-28T06:46:45.325Z,16.10
2022-10-28T06:49:13.145Z,16.20
2022-10-28T06:51:40.948Z,16.30
2022-10-28T06:54:08.906Z,16.30
2022-10-28T06:56:36.711Z,16.40
2022-10-28T06:59:04.544Z,16.50
2022-10-28T07:01:32.556Z,16.60
2022-10-28T07:04:01.925Z,16.70
2022-10-28T07:06:29.764Z,16.80
2022-10-28T07:08:57.547Z,16.90
2022-10-28T07:11:25.641Z,17.00
2022-10-28T07:13:53.554Z,17.10
2022-10-28T07:16:21.486Z,17.20
2022-10-28T07:18:49.316Z,17.30
2022-10-28T07:21:18.799Z,17.40
2022-10-28T07:23:48.196Z,17.50
2022-10-28T07:26:16.004Z,17.60
2022-10-28T07:28:43.954Z,17.70
2022-10-28T07:33:44.723Z,17.90
2022-10-28T07:36:12.928Z,18.00
2022-10-28T07:38:42.105Z,18.10
2022-10-28T07:41:11.109Z,18.30
2022-10-28T07:43:39.863Z,18.40
2022-10-28T07:46:08.414Z,18.60
2022-10-28T07:48:37.143Z,18.80
2022-10-28T07:51:06.720Z,19.00
2022-10-28T07:53:35.177Z,19.20
2022-10-28T07:56:07.080Z,19.40
2022-10-28T07:58:34.915Z,19.60
2022-10-28T08:01:04.887Z,19.80
2022-10-28T08:03:38.673Z,20.00
2022-10-28T08:06:09.707Z,20.20
2022-10-28T08:08:37.794Z,20.30
2022-10-28T08:11:14.860Z,20.40
2022-10-28T08:13:43.034Z,20.50
2022-10-28T08:16:11.282Z,20.70
2022-10-28T08:18:40.176Z,20.80
2022-10-28T08:21:09.907Z,20.90
2022-10-28T08:23:38.592Z,20.90
2022-10-28T08:26:06.728Z,21.00
2022-10-28T08:28:35.938Z,21.10
2022-10-28T08:31:09.410Z,21.20
2022-10-28T08:33:38.401Z,21.30
2022-10-28T08:36:07.185Z,21.40
2022-10-28T08:38:35.022Z,21.50
2022-10-28T08:41:13.691Z,21.60
2022-10-28T08:43:58.139Z,21.80
2022-10-28T08:46:40.539Z,22.00
2022-10-28T08:49:13.191Z,22.20
2022-10-28T08:51:46.632Z,22.40
2022-10-28T08:54:19.690Z,22.60
2022-10-28T08:56:49.961Z,22.80
2022-10-28T08:59:24.524Z,22.90
2022-10-28T09:04:28.739Z,23.30
2022-10-28T09:06:57.411Z,23.50
2022-10-28T09:09:25.341Z,23.70
2022-10-28T09:12:16.105Z,23.80
2022-10-28T09:15:02.044Z,23.90
2022-10-28T09:17:38.343Z,24.00
2022-10-28T09:20:17.810Z,24.20
2022-10-28T09:22:56.676Z,24.30
2022-10-28T09:25:32.193Z,24.40
2022-10-28T09:28:11.695Z,24.60
2022-10-28T09:30:49.620Z,24.70
2022-10-28T09:33:39.084Z,24.80
2022-10-28T09:36:11.167Z,24.90
2022-10-28T09:38:39.508Z,25.10
2022-10-28T09:41:12.942Z,25.20
2022-10-28T09:43:47.647Z,25.30
2022-10-28T09:46:18.798Z,25.40
2022-10-28T09:48:49.842Z,25.50
2022-10-28T09:51:30.703Z,25.60
2022-10-28T09:53:59.982Z,25.80
2022-10-28T09:56:29.881Z,25.90
2022-10-28T09:59:00.750Z,26.10
2022-10-28T10:01:33.825Z,26.20
2022-10-28T10:04:02.146Z,26.40
2022-10-28T10:06:35.951Z,26.60
2022-10-28T10:09:04.472Z,27.00
2022-10-28T10:11:37.265Z,27.50
2022-10-28T10:14:09.285Z,28.00
2022-10-28T10:16:43.680Z,28.70
2022-10-28T10:19:12.288Z,29.50
2022-10-28T10:21:45.483Z,30.30
2022-10-28T10:24:29.508Z,31.20
2022-10-28T10:26:59.134Z,32.10
2022-10-28T10:29:27.276Z,32.80
2022-10-28T10:32:19.174Z,33.50
2022-10-28T10:34:51.658Z,34.40
2022-10-28T10:37:22.017Z,35.10
2022-10-28T10:40:19.300Z,35.80
2022-10-28T10:43:09.513Z,36.60
2022-10-28T10:45:35.331Z,37.50
2022-10-28T10:48:13.666Z,38.40
2022-10-28T10:50:43.059Z,39.20
2022-10-28T10:53:21.059Z,39.90
2022-10-28T10:55:55.470Z,40.70
2022-10-28T10:58:25.908Z,42.20
2022-10-28T11:00:56.036Z,42.20
2022-10-28T11:03:29.068Z,43.00
2022-10-28T11:06:22.143Z,43.70
2022-10-28T11:08:46.971Z,44.10
2022-10-28T11:11:20.320Z,44.50
2022-10-28T11:13:49.577Z,44.50
2022-10-28T11:16:22.508Z,44.50
2022-10-28T11:18:53.310Z,44.50
2022-10-28T11:21:36.990Z,44.40
2022-10-28T11:24:25.352Z,44.30
2022-10-28T11:27:01.232Z,44.00
2022-10-28T11:29:29.374Z,43.70
2022-10-28T11:32:13.865Z,43.20
2022-10-28T11:35:04.079Z,43.10
2022-10-28T11:37:44.850Z,43.50
2022-10-28T11:40:27.556Z,44.10
2022-10-28T11:43:09.460Z,44.50
2022-10-28T11:45:45.850Z,44.60
2022-10-28T11:48:29.424Z,44.90
2022-10-28T11:51:12.715Z,45.80
2022-10-28T11:54:08.829Z,46.00
2022-10-28T11:56:40.461Z,47.20
2022-10-28T11:59:24.562Z,47.60
2022-10-28T12:02:04.590Z,48.10
2022-10-28T12:04:49.635Z,48.50
2022-10-28T12:07:44.196Z,48.30
2022-10-28T12:10:29.584Z,47.60
2022-10-28T12:13:06.242Z,46.80
2022-10-28T12:15:42.912Z,45.80
2022-10-28T12:18:19.862Z,45.10
2022-10-28T12:20:53.826Z,44.90
2022-10-28T12:23:25.824Z,44.90
2022-10-28T12:25:57.259Z,45.20
2022-10-28T12:28:28.765Z,45.20
2022-10-28T12:30:58.251Z,45.00
2022-10-28T12:33:30.600Z,44.60
2022-10-28T12:36:19.139Z,43.90
2022-10-28T12:38:56.512Z,43.00
2022-10-28T12:41:27.110Z,42.20
2022-10-28T12:44:00.185Z,41.30
2022-10-28T12:46:44.868Z,40.40
2022-10-28T12:49:18.504Z,39.60
2022-10-28T12:51:46.506Z,38.70
2022-10-28T12:54:22.873Z,38.00
2022-10-28T12:56:53.579Z,37.30
2022-10-28T12:59:30.538Z,36.60
2022-10-28T13:02:01.275Z,36.00
2022-10-28T13:04:29.850Z,35.50
2022-10-28T13:07:15.584Z,34.90
2022-10-28T13:09:56.178Z,34.40
2022-10-28T13:12:57.428Z,34.00
2022-10-28T13:15:53.469Z,33.50
2022-10-28T13:18:41.120Z,33.10
2022-10-28T13:21:16.455Z,32.80
2022-10-28T13:23:52.766Z,32.50
2022-10-28T13:26:27.780Z,32.20
2022-10-28T13:28:58.806Z,32.00
2022-10-28T13:31:38.975Z,31.70
2022-10-28T13:34:08.205Z,31.60
2022-10-28T13:36:38.597Z,31.30
2022-10-28T13:39:23.047Z,31.10
2022-10-28T13:42:30.725Z,31.00
2022-10-28T13:45:00.842Z,30.80
2022-10-28T13:47:31.947Z,30.70
2022-10-28T13:50:23.863Z,30.60
2022-10-28T13:53:43.367Z,30.40
2022-10-28T13:56:41.460Z,30.40
2022-10-28T13:59:23.620Z,30.20
2022-10-28T14:02:28.331Z,30.10
2022-10-28T14:04:56.604Z,30.00
2022-10-28T14:07:28.912Z,29.80
2022-10-28T14:10:17.648Z,29.70
2022-10-28T14:12:51.332Z,29.50
2022-10-28T14:15:29.277Z,29.40
2022-10-28T14:18:10.393Z,29.20
2022-10-28T14:21:00.577Z,29.10
2022-10-28T14:23:51.203Z,28.90
2022-10-28T14:26:19.047Z,28.70
2022-10-28T14:28:54.769Z,28.60
2022-10-28T14:31:42.476Z,28.50
2022-10-28T14:34:39.730Z,28.30
2022-10-28T14:37:41.139Z,28.20
2022-10-28T14:40:26.249Z,28.10
2022-10-28T14:43:25.061Z,28.00
2022-10-28T14:46:14.591Z,27.90
2022-10-28T14:48:52.453Z,27.70
2022-10-28T14:51:22.908Z,27.60
2022-10-28T14:53:54.813Z,27.60
2022-10-28T14:56:25.695Z,27.50
2022-10-28T14:58:55.038Z,27.40
2022-10-28T15:01:35.429Z,27.30
2022-10-28T15:04:12.076Z,27.30
2022-10-28T15:06:43.433Z,27.20
2022-10-28T15:09:23.023Z,27.10
2022-10-28T15:11:55.785Z,27.00
2022-10-28T15:14:42.356Z,26.90
2022-10-28T15:17:15.254Z,26.80
2022-10-28T15:19:45.361Z,26.70
2022-10-28T15:22:21.542Z,26.60
2022-10-28T15:24:57.348Z,26.60
2022-10-28T15:27:26.960Z,26.50
2022-10-28T15:29:55.774Z,26.40
2022-10-28T15:32:29.492Z,26.30
2022-10-28T15:34:59.051Z,26.20
2022-10-28T15:37:29.238Z,26.10
2022-10-28T15:40:14.209Z,25.90
2022-10-28T15:42:45.781Z,25.80
2022-10-28T15:45:19.219Z,25.70
2022-10-28T15:47:48.315Z,25.40
2022-10-28T15:50:29.683Z,25.40
2022-10-28T15:53:23.077Z,25.20
2022-10-28T15:56:10.228Z,25.10
2022-10-28T15:58:41.432Z,24.90
2022-10-28T16:01:11.257Z,24.80
2022-10-28T16:03:44.860Z,24.70
2022-10-28T16:06:26.670Z,24.50
2022-10-28T16:09:08.526Z,24.40
2022-10-28T16:11:41.360Z,24.30
2022-10-28T16:14:36.307Z,24.10
2022-10-28T16:17:12.600Z,24.00
2022-10-28T16:19:44.802Z,23.80
2022-10-28T16:22:15.249Z,23.70
2022-10-28T16:24:43.140Z,23.50
2022-10-28T16:27:16.996Z,23.40
2022-10-28T16:29:44.960Z,23.30
2022-10-28T16:32:14.428Z,23.10
2022-10-28T16:34:42.248Z,23.00
2022-10-28T16:37:24.228Z,22.90
2022-10-28T16:39:52.150Z,22.80
2022-10-28T16:42:21.683Z,22.60
2022-10-28T16:44:49.773Z,22.50
2022-10-28T16:47:19.108Z,22.50
2022-10-28T16:49:52.389Z,22.40
2022-10-28T16:52:27.507Z,22.30
2022-10-28T16:54:55.583Z,22.30
2022-10-28T16:59:57.030Z,22.20
2022-10-28T17:02:28.737Z,22.10
2022-10-28T17:04:57.518Z,22.10
2022-10-28T17:07:27.082Z,22.00
2022-10-28T17:09:55.111Z,21.90
2022-10-28T17:12:25.392Z,21.80
2022-10-28T17:14:53.720Z,21.80
2022-10-28T17:17:21.541Z,21.70
2022-10-28T17:19:49.420Z,21.60
2022-10-28T17:22:17.330Z,21.60
2022-10-28T17:24:46.897Z,21.50
2022-10-28T17:27:15.087Z,21.50
2022-10-28T17:29:43.025Z,21.50
2022-10-28T17:32:10.899Z,21.50
2022-10-28T17:34:38.812Z,21.40
2022-10-28T17:37:07.714Z,21.40
2022-10-28T17:39:35.950Z,21.40
2022-10-28T17:42:05.335Z,21.30
2022-10-28T17:44:33.124Z,21.30
2022-10-28T17:47:01.060Z,21.30
2022-10-28T17:49:29.279Z,21.20
2022-10-28T17:51:57.088Z,21.20
2022-10-28T17:54:25.027Z,21.10
2022-10-28T17:56:52.847Z,21.10
2022-10-28T17:59:21.992Z,21.00
2022-10-28T18:01:49.874Z,20.90
2022-10-28T18:06:47.663Z,20.70
2022-10-28T18:09:15.630Z,20.60
2022-10-28T18:11:43.494Z,20.50
2022-10-28T18:14:11.343Z,20.50
2022-10-28T18:16:40.591Z,20.40
2022-10-28T18:19:09.247Z,20.40
2022-10-28T18:21:37.072Z,20.30
2022-10-28T18:24:05.433Z,20.20
2022-10-28T18:26:34.958Z,20.20
2022-10-28T18:29:04.061Z,20.20
2022-10-28T18:31:33.256Z,20.10
2022-10-28T18:34:02.963Z,20.10
2022-10-28T18:36:34.479Z,20.10
2022-10-28T18:39:04.052Z,20.10
2022-10-28T18:41:32.857Z,20.00
2022-10-28T18:44:02.210Z,20.00
2022-10-28T18:46:31.351Z,20.00
2022-10-28T18:51:33.692Z,19.90
2022-10-28T18:54:01.907Z,19.90
2022-10-28T18:56:32.038Z,19.90
2022-10-28T18:59:02.851Z,19.80
2022-10-28T19:01:32.115Z,19.80
2022-10-28T19:04:02.017Z,19.80
2022-10-28T19:06:32.555Z,19.90
2022-10-28T19:09:05.118Z,19.90
2022-10-28T19:11:34.344Z,19.90
2022-10-28T19:14:06.809Z,19.90
2022-10-28T19:16:35.176Z,20.00
2022-10-28T19:19:04.827Z,20.00
2022-10-28T19:21:33.470Z,20.00
2022-10-28T19:24:03.543Z,20.10
2022-10-28T19:26:31.866Z,20.10
2022-10-28T19:28:59.818Z,20.10
2022-10-28T19:31:28.346Z,20.10
2022-10-28T19:33:56.447Z,20.20
2022-10-28T19:36:25.945Z,20.20
2022-10-28T19:38:55.093Z,20.20
2022-10-28T19:41:26.713Z,20.30
2022-10-28T19:43:58.047Z,20.30
2022-10-28T19:46:27.705Z,20.30
2022-10-28T19:48:57.452Z,20.40
2022-10-28T19:51:28.193Z,20.40
2022-10-28T19:53:57.546Z,20.40
2022-10-28T19:56:27.715Z,20.40
2022-10-28T19:58:57.128Z,20.50
2022-10-28T20:01:26.441Z,20.50
2022-10-28T20:03:55.547Z,20.50
2022-10-28T20:06:24.932Z,20.50
2022-10-28T20:08:52.930Z,20.50
2022-10-28T20:11:25.849Z,20.50
2022-10-28T20:13:56.997Z,20.50
2022-10-28T20:16:25.802Z,20.60
2022-10-28T20:18:54.968Z,20.60
2022-10-28T20:21:24.307Z,20.60
2022-10-28T20:23:54.630Z,20.60
2022-10-28T20:26:23.655Z,20.60
2022-10-28T20:28:51.947Z,20.60
2022-10-28T20:31:23.249Z,20.60
2022-10-28T20:33:52.660Z,20.60
2022-10-28T20:36:25.162Z,20.60
2022-10-28T20:38:56.489Z,20.60
2022-10-28T20:41:24.719Z,20.60
2022-10-28T20:43:54.191Z,20.70
2022-10-28T20:46:24.510Z,20.70
2022-10-28T20:48:53.965Z,20.70
2022-10-28T20:51:22.180Z,20.60
2022-10-28T20:53:50.029Z,20.70
2022-10-28T20:56:19.972Z,20.60
2022-10-28T20:58:48.643Z,20.60
2022-10-28T21:01:18.415Z,20.60
2022-10-28T21:03:48.413Z,20.60
2022-10-28T21:06:17.525Z,20.60
2022-10-28T21:08:45.647Z,20.60
2022-10-28T21:11:15.067Z,20.60
2022-10-28T21:13:43.753Z,20.60
2022-10-28T21:16:13.054Z,20.70
2022-10-28T21:18:41.160Z,20.70
2022-10-28T21:21:11.979Z,20.70
2022-10-28T21:23:39.958Z,20.70
2022-10-28T21:26:08.975Z,20.70
2022-10-28T21:28:37.113Z,20.70
2022-10-28T21:31:06.607Z,20.80
2022-10-28T21:33:35.783Z,20.70
2022-10-28T21:36:06.140Z,20.80
2022-10-28T21:38:36.113Z,20.80
2022-10-28T21:41:06.103Z,20.80
2022-10-28T21:43:35.871Z,20.80
2022-10-28T21:46:04.455Z,20.80
2022-10-28T21:48:33.616Z,20.80
2022-10-28T21:51:04.045Z,20.80
2022-10-28T21:53:36.087Z,20.80
2022-10-28T21:56:04.738Z,20.90
2022-10-28T21:58:33.076Z,20.80
2022-10-28T22:01:05.598Z,20.90
2022-10-28T22:03:33.451Z,20.90
2022-10-28T22:06:01.567Z,20.90
2022-10-28T22:08:29.706Z,20.90
2022-10-28T22:11:03.225Z,20.90
2022-10-28T22:13:31.389Z,20.90
2022-10-28T22:16:00.311Z,21.00
2022-10-28T22:18:28.976Z,20.90
2022-10-28T22:20:57.273Z,21.00
2022-10-28T22:23:25.160Z,20.90
2022-10-28T22:25:52.987Z,21.00
2022-10-28T22:28:22.140Z,21.00
2022-10-28T22:30:49.957Z,21.00
2022-10-28T22:33:17.759Z,21.00
2022-10-28T22:35:45.584Z,21.00
2022-10-28T22:38:13.372Z,21.00
2022-10-28T22:40:41.252Z,21.00
2022-10-28T22:43:09.061Z,21.00
2022-10-28T22:45:38.200Z,20.90
2022-10-28T22:48:06.383Z,20.90
2022-10-28T22:50:34.533Z,20.90
2022-10-28T22:53:02.344Z,20.80
2022-10-28T22:55:30.338Z,20.80
2022-10-28T22:57:58.353Z,20.80
2022-10-28T23:00:26.299Z,20.70
2022-10-28T23:02:57.252Z,20.70
2022-10-28T23:05:25.318Z,20.70
2022-10-28T23:07:54.151Z,20.60
2022-10-28T23:10:22.175Z,20.60
2022-10-28T23:12:56.298Z,20.50
2022-10-28T23:15:24.879Z,20.50
2022-10-28T23:17:53.763Z,20.50
2022-10-28T23:20:24.842Z,20.50
2022-10-28T23:22:55.569Z,20.50
2022-10-28T23:25:23.719Z,20.40
2022-10-28T23:27:51.512Z,20.40
2022-10-28T23:30:19.475Z,20.30
2022-10-28T23:32:47.326Z,20.30
2022-10-28T23:35:15.211Z,20.30
2022-10-28T23:37:44.663Z,20.30
2022-10-28T23:40:13.287Z,20.20
2022-10-28T23:42:41.177Z,20.20
2022-10-28T23:45:10.460Z,20.10
2022-10-28T23:47:38.293Z,20.10
2022-10-28T23:50:06.543Z,20.00
2022-10-28T23:52:34.355Z,20.00
2022-10-28T23:55:03.571Z,19.90
2022-10-28T23:57:31.403Z,19.90
2022-10-28T23:59:59.270Z,19.90
